createdAt,value
2022-08-05T00:05:00.568Z,28.67
2022-08-05T00:10:32.283Z,28.54
2022-08-05T00:16:04.008Z,28.51
2022-08-05T00:21:36.151Z,28.36
2022-08-05T00:27:10.365Z,28.3
2022-08-05T00:32:39.144Z,28.12
2022-08-05T00:38:10.953Z,28.1
2022-08-05T00:43:46.817Z,27.82
2022-08-05T00:49:14.644Z,27.34
2022-08-05T00:54:46.050Z,27.18
2022-08-05T01:00:17.850Z,27.17
2022-08-05T01:05:54.415Z,27.08
2022-08-05T01:11:33.773Z,27.16
2022-08-05T01:16:57.315Z,26.98
2022-08-05T01:22:29.023Z,26.7
2022-08-05T01:28:00.749Z,26.59
2022-08-05T01:33:35.238Z,26.7
2022-08-05T01:39:04.288Z,26.67
2022-08-05T01:44:35.989Z,26.72
2022-08-05T01:50:07.686Z,26.73
2022-08-05T01:55:39.419Z,26.59
2022-08-05T02:01:11.152Z,27.06
2022-08-05T02:06:47.226Z,27.06
2022-08-05T02:12:19.002Z,27.1
2022-08-05T02:18:15.254Z,26.86
2022-08-05T02:23:22.404Z,26.95
2022-08-05T02:28:54.165Z,26.78
2022-08-05T02:34:25.837Z,26.78
2022-08-05T02:39:57.605Z,26.58
2022-08-05T02:45:51.848Z,26.58
2022-08-05T02:51:01.195Z,26.55
2022-08-05T02:56:32.758Z,26.49
2022-08-05T03:02:04.505Z,26.36
2022-08-05T03:08:01.975Z,26.37
2022-08-05T03:13:16.674Z,26.35
2022-08-05T03:18:46.085Z,26.32
2022-08-05T03:24:17.741Z,26.18
2022-08-05T03:30:07.934Z,26.13
2022-08-05T03:35:21.121Z,26.08
2022-08-05T03:40:52.958Z,25.99
2022-08-05T03:46:26.734Z,25.98
2022-08-05T03:52:35.944Z,25.91
2022-08-05T03:54:58.449Z,25.91
2022-08-05T03:57:29.171Z,25.92
2022-08-05T04:02:59.791Z,25.88
2022-08-05T04:08:36.618Z,25.93
2022-08-05T04:14:07.563Z,25.93
2022-08-05T04:19:39.298Z,25.92
2022-08-05T04:25:11.078Z,25.91
2022-08-05T04:30:42.871Z,25.86
2022-08-05T04:36:16.870Z,25.91
2022-08-05T04:41:46.242Z,25.93
2022-08-05T04:47:20.159Z,25.77
2022-08-05T04:52:49.639Z,25.9
2022-08-05T04:58:21.659Z,25.83
2022-08-05T05:03:53.070Z,25.47
2022-08-05T05:09:29.175Z,25.45
2022-08-05T05:15:03.588Z,25.49
2022-08-05T05:20:32.601Z,25.68
2022-08-05T05:26:04.359Z,25.67
2022-08-05T05:37:07.859Z,25.64
2022-08-05T05:42:39.593Z,25.75
2022-08-05T05:48:11.320Z,25.85
2022-08-05T05:53:46.187Z,25.93
2022-08-05T05:59:14.809Z,26.01
2022-08-05T06:04:47.572Z,25.98
2022-08-05T06:10:22.585Z,26.41
2022-08-05T06:16:27.938Z,26.47
2022-08-05T06:21:35.816Z,26.56
2022-08-05T06:26:57.760Z,26.87
2022-08-05T06:32:29.474Z,26.68
2022-08-05T06:38:04.359Z,26.86
2022-08-05T06:43:51.421Z,27.22
2022-08-05T06:49:05.670Z,27.35
2022-08-05T06:54:36.439Z,27.49
2022-08-05T07:00:09.623Z,27.12
2022-08-05T07:05:41.080Z,27.41
2022-08-05T07:11:16.034Z,27.54
2022-08-05T07:17:57.500Z,27.84
2022-08-05T07:17:57.626Z,27.84
2022-08-05T07:22:19.337Z,28.18
2022-08-05T07:27:56.874Z,28.0
2022-08-05T07:33:35.345Z,28.37
2022-08-05T07:38:54.859Z,28.1
2022-08-05T07:44:26.243Z,28.18
2022-08-05T07:49:57.970Z,28.41
2022-08-05T07:55:44.758Z,28.48
2022-08-05T08:01:01.448Z,28.34
2022-08-05T08:06:33.148Z,28.71
2022-08-05T08:12:17.134Z,28.69
2022-08-05T08:17:43.954Z,29.07
2022-08-05T08:24:00.650Z,29.23
2022-08-05T08:28:55.112Z,29.01
2022-08-05T08:34:16.146Z,29.56
2022-08-05T08:39:49.366Z,29.34
2022-08-05T08:45:26.911Z,29.62
2022-08-05T08:50:52.971Z,29.49
2022-08-05T08:56:22.990Z,29.68
2022-08-05T09:01:57.204Z,30.17
2022-08-05T09:07:28.317Z,29.92
2022-08-05T09:13:05.087Z,30.52
2022-08-05T09:18:38.995Z,30.86
2022-08-05T09:24:08.078Z,31.4
2022-08-05T09:29:44.838Z,31.1
2022-08-05T09:35:11.522Z,30.92
2022-08-05T09:40:44.686Z,31.28
2022-08-05T09:46:15.496Z,31.39
2022-08-05T09:51:49.072Z,31.3
2022-08-05T09:57:20.728Z,31.82
2022-08-05T10:02:50.185Z,32.05
2022-08-05T10:08:35.571Z,32.38
2022-08-05T10:13:57.989Z,32.55
2022-08-05T10:19:32.047Z,32.16
2022-08-05T10:25:01.509Z,32.79
2022-08-05T10:30:41.657Z,32.7
2022-08-05T10:32:49.952Z,32.7
2022-08-05T10:36:04.958Z,32.79
2022-08-05T10:41:45.093Z,32.93
2022-08-05T10:47:10.220Z,33.09
2022-08-05T10:52:40.111Z,33.43
2022-08-05T10:58:11.762Z,33.42
2022-08-05T11:03:43.496Z,33.49
2022-08-05T11:09:16.504Z,33.55
2022-08-05T11:15:01.067Z,33.3
2022-08-05T11:20:23.717Z,33.93
2022-08-05T11:26:03.923Z,34.43
2022-08-05T11:31:54.592Z,34.02
2022-08-05T11:36:58.885Z,34.01
2022-08-05T11:42:30.553Z,34.12
2022-08-05T11:48:02.283Z,34.71
2022-08-05T11:53:34.010Z,34.26
2022-08-05T11:59:05.907Z,34.79
2022-08-05T12:04:37.566Z,34.6
2022-08-05T12:10:11.544Z,34.97
2022-08-05T12:15:45.282Z,35.26
2022-08-05T12:21:17.314Z,35.06
2022-08-05T12:26:48.751Z,34.84
2022-08-05T12:32:20.511Z,34.73
2022-08-05T12:37:53.176Z,34.49
2022-08-05T12:43:23.937Z,34.39
2022-08-05T12:48:55.643Z,33.9
2022-08-05T12:54:27.329Z,33.69
2022-08-05T13:00:09.131Z,34.06
2022-08-05T13:01:59.093Z,34.06
2022-08-05T13:05:34.061Z,34.19
2022-08-05T13:11:02.637Z,34.06
2022-08-05T13:16:38.610Z,33.98
2022-08-05T13:22:10.380Z,34.28
2022-08-05T13:27:42.462Z,34.54
2022-08-05T13:33:14.400Z,34.58
2022-08-05T13:34:20.595Z,34.58
2022-08-05T13:38:45.501Z,34.38
2022-08-05T13:44:17.238Z,33.9
2022-08-05T13:49:48.997Z,33.82
2022-08-05T13:55:41.374Z,34.03
2022-08-05T14:00:52.383Z,34.09
2022-08-05T14:06:25.580Z,33.93
2022-08-05T14:12:00.584Z,34.36
2022-08-05T14:17:32.166Z,34.49
2022-08-05T14:23:03.651Z,34.44
2022-08-05T14:28:35.378Z,33.88
2022-08-05T14:34:07.149Z,33.23
2022-08-05T14:39:48.577Z,33.47
2022-08-05T14:45:10.549Z,34.03
2022-08-05T14:50:42.231Z,33.49
2022-08-05T14:56:14.246Z,33.11
2022-08-05T15:01:47.342Z,33.16
2022-08-05T15:08:05.394Z,33.05
2022-08-05T15:13:00.045Z,32.54
2022-08-05T15:18:25.406Z,32.53
2022-08-05T15:23:57.156Z,32.51
2022-08-05T15:29:29.960Z,31.97
2022-08-05T15:35:04.018Z,32.11
2022-08-05T15:40:41.824Z,31.81
2022-08-05T15:46:04.013Z,31.29
2022-08-05T15:52:03.504Z,31.27
2022-08-05T15:57:07.902Z,31.14
2022-08-05T16:02:39.399Z,30.9
2022-08-05T16:08:11.013Z,30.77
2022-08-05T16:13:42.830Z,30.82
2022-08-05T16:19:25.815Z,30.72
2022-08-05T16:24:50.988Z,30.23
2022-08-05T16:30:23.481Z,29.93
2022-08-05T16:35:54.144Z,30.11
2022-08-05T16:42:13.413Z,29.92
2022-08-05T16:46:57.514Z,29.54
2022-08-05T16:52:30.639Z,29.32
2022-08-05T16:58:01.519Z,29.06
2022-08-05T17:03:33.061Z,29.03
2022-08-05T17:09:04.405Z,28.89
2022-08-05T17:14:37.067Z,28.56
2022-08-05T17:20:14.554Z,28.65
2022-08-05T17:25:44.106Z,28.32
2022-08-05T17:31:24.212Z,28.5
2022-08-05T17:36:47.522Z,28.1
2022-08-05T17:42:22.812Z,28.2
2022-08-05T17:47:54.290Z,27.66
2022-08-05T17:53:24.852Z,27.4
2022-08-05T17:58:54.406Z,27.19
2022-08-05T18:04:27.131Z,26.77
2022-08-05T18:09:59.306Z,26.85
2022-08-05T18:15:31.032Z,26.73
2022-08-05T18:21:05.758Z,26.83
2022-08-05T18:26:37.503Z,26.65
2022-08-05T18:32:12.580Z,26.55
2022-08-05T18:37:41.086Z,26.56
2022-08-05T18:43:16.253Z,26.15
2022-08-05T18:48:44.452Z,26.04
2022-08-05T18:54:16.168Z,26.26
2022-08-05T19:00:01.932Z,26.19
2022-08-05T19:06:06.567Z,25.93
2022-08-05T19:10:51.274Z,26.03
2022-08-05T19:16:25.552Z,25.71
2022-08-05T19:22:01.205Z,25.64
2022-08-05T19:27:32.850Z,25.51
2022-08-05T19:33:06.344Z,25.42
2022-08-05T19:38:36.491Z,25.12
2022-08-05T19:44:13.363Z,24.74
2022-08-05T19:49:39.747Z,24.5
2022-08-05T19:56:12.025Z,23.69
2022-08-05T19:56:15.326Z,23.69
2022-08-05T20:00:43.178Z,23.81
2022-08-05T20:06:15.791Z,23.79
2022-08-05T20:11:47.985Z,23.52
2022-08-05T20:17:18.435Z,23.54
2022-08-05T20:22:54.632Z,23.99
2022-08-05T20:28:26.238Z,23.65
2022-08-05T20:33:57.919Z,23.54
2022-08-05T20:39:35.693Z,23.53
2022-08-05T20:45:01.405Z,23.3
2022-08-05T20:50:33.077Z,23.46
2022-08-05T20:56:08.093Z,22.89
2022-08-05T21:01:37.623Z,22.82
2022-08-05T21:07:08.325Z,22.86
2022-08-05T21:12:40.006Z,23.01
2022-08-05T21:18:11.766Z,22.78
2022-08-05T21:23:47.822Z,22.75
2022-08-05T21:29:19.530Z,22.54
2022-08-05T21:34:55.757Z,22.78
2022-08-05T21:40:23.168Z,22.86
2022-08-05T21:45:57.018Z,22.67
2022-08-05T21:52:16.864Z,22.65
2022-08-05T21:52:28.274Z,22.65
2022-08-05T21:57:29.466Z,23.31
2022-08-05T22:02:29.926Z,23.41
2022-08-05T22:08:02.383Z,23.21
2022-08-05T22:14:06.787Z,23.23
2022-08-05T22:14:37.765Z,23.23
2022-08-05T22:19:12.779Z,23.12
2022-08-05T22:24:51.676Z,23.02
2022-08-05T22:30:15.306Z,23.15
2022-08-05T22:35:48.259Z,22.91
2022-08-05T22:41:26.098Z,22.93
2022-08-05T22:46:50.153Z,22.68
2022-08-05T22:52:30.153Z,22.77
2022-08-05T22:57:53.618Z,22.81
2022-08-05T23:03:58.620Z,22.88
2022-08-05T23:08:57.027Z,22.82
2022-08-05T23:14:31.918Z,22.85
2022-08-05T23:20:00.652Z,22.71
2022-08-05T23:25:53.800Z,22.76
2022-08-05T23:31:16.827Z,22.65
2022-08-05T23:36:44.485Z,22.69
2022-08-05T23:42:14.384Z,22.56
2022-08-05T23:47:47.637Z,22.65
2022-08-05T23:53:22.185Z,22.5
2022-08-05T23:58:46.954Z,22.46
